createdAt,value
2016-11-17T00:00:46.327Z,7.67
2016-11-17T00:01:46.316Z,7.63
2016-11-17T00:02:46.312Z,7.67
2016-11-17T00:03:46.285Z,7.67
2016-11-17T00:04:46.278Z,7.58
2016-11-17T00:05:46.272Z,7.59
2016-11-17T00:06:46.262Z,7.58
2016-11-17T00:07:46.247Z,7.64
2016-11-17T00:08:46.245Z,7.67
2016-11-17T00:09:46.219Z,7.63
2016-11-17T00:10:46.626Z,7.71
2016-11-17T00:11:46.199Z,7.64
2016-11-17T00:12:46.189Z,7.75
2016-11-17T00:13:46.186Z,7.77
2016-11-17T00:14:46.174Z,7.77
2016-11-17T00:15:46.154Z,7.71
2016-11-17T00:16:46.142Z,7.74
2016-11-17T00:17:46.140Z,7.75
2016-11-17T00:18:46.121Z,7.61
2016-11-17T00:19:46.120Z,7.7
2016-11-17T00:20:46.101Z,7.64
2016-11-17T00:21:46.094Z,7.63
2016-11-17T00:22:46.088Z,7.74
2016-11-17T00:23:46.078Z,7.67
2016-11-17T00:24:46.057Z,7.58
2016-11-17T00:25:46.059Z,7.56
2016-11-17T00:26:46.037Z,7.58
2016-11-17T00:27:46.037Z,7.59
2016-11-17T00:28:46.011Z,7.58
2016-11-17T00:29:46.002Z,7.56
2016-11-17T00:30:45.992Z,7.58
2016-11-17T00:31:45.981Z,7.67
2016-11-17T00:32:45.965Z,7.56
2016-11-17T00:33:45.971Z,7.59
2016-11-17T00:34:45.954Z,7.64
2016-11-17T00:35:45.936Z,7.56
2016-11-17T00:36:45.929Z,7.49
2016-11-17T00:37:45.915Z,7.49
2016-11-17T00:38:45.909Z,7.51
2016-11-17T00:39:45.892Z,7.51
2016-11-17T00:40:45.897Z,7.41
2016-11-17T00:41:45.869Z,7.44
2016-11-17T00:42:45.875Z,7.34
2016-11-17T00:43:45.848Z,7.37
2016-11-17T00:44:45.840Z,7.29
2016-11-17T00:45:45.829Z,7.3
2016-11-17T00:46:45.814Z,7.21
2016-11-17T00:47:45.808Z,7.27
2016-11-17T00:48:45.806Z,7.21
2016-11-17T00:49:45.780Z,7.12
2016-11-17T00:50:45.775Z,7.13
2016-11-17T00:51:45.768Z,7.13
2016-11-17T00:52:45.949Z,7.11
2016-11-17T00:53:45.740Z,7.11
2016-11-17T00:54:45.735Z,7.05
2016-11-17T00:55:45.714Z,7
2016-11-17T00:56:45.704Z,7.01
2016-11-17T00:57:45.711Z,6.95
2016-11-17T00:58:45.679Z,6.98
2016-11-17T00:59:45.681Z,6.82
2016-11-17T01:00:45.654Z,6.83
2016-11-17T01:01:45.647Z,6.91
2016-11-17T01:02:45.641Z,6.79
2016-11-17T01:03:45.619Z,6.83
2016-11-17T01:04:45.614Z,6.8
2016-11-17T01:05:45.607Z,6.82
2016-11-17T01:06:45.597Z,6.83
2016-11-17T01:07:45.577Z,6.75
2016-11-17T01:08:45.565Z,6.8
2016-11-17T01:09:45.551Z,6.79
2016-11-17T01:10:45.559Z,6.83
2016-11-17T01:11:45.536Z,6.9
2016-11-17T01:12:45.570Z,6.8
2016-11-17T01:13:45.512Z,6.91
2016-11-17T01:14:45.499Z,6.85
2016-11-17T01:15:45.491Z,6.88
2016-11-17T01:16:45.486Z,6.94
2016-11-17T01:17:45.460Z,7.01
2016-11-17T01:18:45.446Z,7
2016-11-17T01:19:45.438Z,7.08
2016-11-17T01:20:45.426Z,7.05
2016-11-17T01:21:45.428Z,7.04
2016-11-17T01:22:45.408Z,7.08
2016-11-17T01:23:45.393Z,7.03
2016-11-17T01:24:45.393Z,7.01
2016-11-17T01:25:45.371Z,7.03
2016-11-17T01:26:45.357Z,6.86
2016-11-17T01:27:45.363Z,6.95
2016-11-17T01:28:45.339Z,6.91
2016-11-17T01:29:45.327Z,6.83
2016-11-17T01:30:45.313Z,6.85
2016-11-17T01:31:45.302Z,6.86
2016-11-17T01:32:45.324Z,6.75
2016-11-17T01:33:45.312Z,6.82
2016-11-17T01:34:45.309Z,6.73
2016-11-17T01:35:45.262Z,6.8
2016-11-17T01:36:45.249Z,6.8
2016-11-17T01:37:45.235Z,6.83
2016-11-17T01:38:45.230Z,6.83
2016-11-17T01:39:45.208Z,6.82
2016-11-17T01:40:45.199Z,6.85
2016-11-17T01:41:45.247Z,6.88
2016-11-17T01:42:45.174Z,6.93
2016-11-17T01:43:45.167Z,6.97
2016-11-17T01:44:45.154Z,7.03
2016-11-17T01:45:45.136Z,6.98
2016-11-17T01:46:45.458Z,7.01
2016-11-17T01:47:45.116Z,6.98
2016-11-17T01:48:45.117Z,7.05
2016-11-17T01:49:45.096Z,7.09
2016-11-17T01:50:45.085Z,7.03
2016-11-17T01:51:45.070Z,7.16
2016-11-17T01:52:45.056Z,7.16
2016-11-17T01:53:45.046Z,7.23
2016-11-17T01:54:45.042Z,7.19
2016-11-17T01:55:45.036Z,7.27
2016-11-17T01:56:45.023Z,7.29
2016-11-17T01:57:45.008Z,7.29
2016-11-17T01:58:44.997Z,7.27
2016-11-17T01:59:44.981Z,7.36
2016-11-17T02:00:44.974Z,7.44
2016-11-17T02:01:44.955Z,7.36
2016-11-17T02:02:44.946Z,7.44
2016-11-17T02:03:45.254Z,7.39
2016-11-17T02:04:44.922Z,7.41
2016-11-17T02:05:45.227Z,7.36
2016-11-17T02:06:44.899Z,7.4
2016-11-17T02:07:44.887Z,7.36
2016-11-17T02:08:45.085Z,7.3
2016-11-17T02:09:44.865Z,7.44
2016-11-17T02:10:44.857Z,7.4
2016-11-17T02:11:44.844Z,7.45
2016-11-17T02:12:44.832Z,7.48
2016-11-17T02:13:44.821Z,7.4
2016-11-17T02:14:44.826Z,7.39
2016-11-17T02:15:44.824Z,7.36
2016-11-17T02:16:44.838Z,7.4
2016-11-17T02:17:44.850Z,7.33
2016-11-17T02:18:44.853Z,7.36
2016-11-17T02:19:44.851Z,7.33
2016-11-17T02:20:44.761Z,7.23
2016-11-17T02:21:44.770Z,7.26
2016-11-17T02:22:44.783Z,7.19
2016-11-17T02:23:44.777Z,7.22
2016-11-17T02:24:44.790Z,7.21
2016-11-17T02:25:44.744Z,7.16
2016-11-17T02:26:44.744Z,7.18
2016-11-17T02:27:44.755Z,7.27
2016-11-17T02:28:44.753Z,7.22
2016-11-17T02:29:44.766Z,7.22
2016-11-17T02:30:44.771Z,7.22
2016-11-17T02:31:44.787Z,7.23
2016-11-17T02:32:44.789Z,7.26
2016-11-17T02:33:44.685Z,7.22
2016-11-17T02:34:44.696Z,7.18
2016-11-17T02:35:44.706Z,7.11
2016-11-17T02:36:44.714Z,7.13
2016-11-17T02:37:44.717Z,7.12
2016-11-17T02:38:44.724Z,7.05
2016-11-17T02:39:44.589Z,6.97
2016-11-17T02:40:44.598Z,7.03
2016-11-17T02:41:44.610Z,7.01
2016-11-17T02:42:44.615Z,7.01
2016-11-17T02:43:44.617Z,6.97
2016-11-17T02:44:44.623Z,7.03
2016-11-17T02:45:44.532Z,7
2016-11-17T02:46:44.541Z,6.98
2016-11-17T02:47:44.538Z,6.95
2016-11-17T02:48:44.549Z,7.01
2016-11-17T02:49:44.556Z,6.91
2016-11-17T02:50:44.566Z,6.9
2016-11-17T02:51:44.576Z,6.93
2016-11-17T02:52:44.572Z,6.94
2016-11-17T02:53:44.423Z,6.83
2016-11-17T02:54:44.412Z,6.83
2016-11-17T02:55:44.400Z,6.78
2016-11-17T02:56:44.391Z,6.78
2016-11-17T02:57:44.607Z,6.73
2016-11-17T02:58:44.360Z,6.7
2016-11-17T02:59:44.363Z,6.68
2016-11-17T03:00:44.377Z,6.73
2016-11-17T03:01:44.374Z,6.72
2016-11-17T03:02:44.494Z,6.72
2016-11-17T03:03:44.335Z,6.73
2016-11-17T03:04:44.322Z,6.73
2016-11-17T03:05:44.211Z,6.8
2016-11-17T03:06:44.198Z,6.79
2016-11-17T03:07:44.187Z,6.85
2016-11-17T03:08:44.176Z,6.79
2016-11-17T03:09:44.336Z,6.73
2016-11-17T03:10:44.158Z,6.73
2016-11-17T03:11:44.140Z,6.78
2016-11-17T03:12:44.138Z,6.75
2016-11-17T03:13:44.117Z,6.75
2016-11-17T03:14:44.112Z,6.7
2016-11-17T03:15:44.091Z,6.68
2016-11-17T03:16:44.083Z,6.67
2016-11-17T03:17:44.071Z,6.62
2016-11-17T03:18:44.066Z,6.7
2016-11-17T03:19:44.051Z,6.65
2016-11-17T03:20:44.046Z,6.73
2016-11-17T03:21:44.021Z,6.61
2016-11-17T03:22:44.014Z,6.67
2016-11-17T03:23:43.998Z,6.68
2016-11-17T03:24:44.004Z,6.67
2016-11-17T03:25:43.986Z,6.72
2016-11-17T03:26:43.972Z,6.64
2016-11-17T03:27:43.964Z,6.65
2016-11-17T03:28:43.946Z,6.57
2016-11-17T03:29:43.930Z,6.68
2016-11-17T03:30:43.921Z,6.6
2016-11-17T03:31:43.909Z,6.67
2016-11-17T03:32:43.896Z,6.67
2016-11-17T03:33:43.881Z,6.57
2016-11-17T03:34:43.890Z,6.61
2016-11-17T03:35:43.860Z,6.61
2016-11-17T03:36:43.857Z,6.64
2016-11-17T03:37:43.833Z,6.58
2016-11-17T03:38:43.827Z,6.55
2016-11-17T03:39:43.816Z,6.54
2016-11-17T03:40:43.806Z,6.55
2016-11-17T03:41:43.796Z,6.57
2016-11-17T03:42:43.776Z,6.55
2016-11-17T03:43:43.764Z,6.58
2016-11-17T03:44:43.755Z,6.6
2016-11-17T03:45:43.740Z,6.64
2016-11-17T03:46:43.729Z,6.61
2016-11-17T03:47:43.720Z,6.67
2016-11-17T03:48:43.703Z,6.64
2016-11-17T03:49:43.697Z,6.62
2016-11-17T03:50:43.683Z,6.65
2016-11-17T03:51:43.679Z,6.55
2016-11-17T03:52:43.670Z,6.55
2016-11-17T03:53:43.647Z,6.64
2016-11-17T03:54:43.638Z,6.61
2016-11-17T03:55:43.630Z,6.55
2016-11-17T03:56:43.611Z,6.64
2016-11-17T03:57:43.605Z,6.58
2016-11-17T03:58:43.592Z,6.6
2016-11-17T03:59:43.587Z,6.64
2016-11-17T04:00:43.576Z,6.65
2016-11-17T04:01:43.556Z,6.61
2016-11-17T04:02:43.552Z,6.6
2016-11-17T04:03:43.544Z,6.64
2016-11-17T04:04:43.518Z,6.64
2016-11-17T04:05:43.503Z,6.7
2016-11-17T04:06:43.506Z,6.65
2016-11-17T04:07:43.484Z,6.67
2016-11-17T04:08:43.679Z,6.62
2016-11-17T04:09:43.623Z,6.61
2016-11-17T04:10:43.609Z,6.7
2016-11-17T04:11:43.438Z,6.61
2016-11-17T04:12:43.418Z,6.62
2016-11-17T04:13:43.496Z,6.62
2016-11-17T04:14:43.401Z,6.61
2016-11-17T04:15:43.603Z,6.62
2016-11-17T04:16:43.590Z,6.61
2016-11-17T04:17:43.582Z,6.61
2016-11-17T04:18:43.430Z,6.6
2016-11-17T04:19:43.564Z,6.57
2016-11-17T04:20:43.326Z,6.57
2016-11-17T04:21:43.335Z,6.55
2016-11-17T04:22:43.308Z,6.61
2016-11-17T04:23:43.298Z,6.64
2016-11-17T04:24:43.290Z,6.58
2016-11-17T04:25:43.269Z,6.55
2016-11-17T04:26:43.298Z,6.58
2016-11-17T04:27:43.248Z,6.58
2016-11-17T04:28:43.238Z,6.61
2016-11-17T04:29:43.226Z,6.55
2016-11-17T04:30:43.234Z,6.62
2016-11-17T04:31:43.197Z,6.61
2016-11-17T04:32:43.187Z,6.51
2016-11-17T04:33:43.183Z,6.57
2016-11-17T04:34:43.160Z,6.57
2016-11-17T04:35:43.165Z,6.6
2016-11-17T04:36:43.135Z,6.55
2016-11-17T04:37:43.125Z,6.55
2016-11-17T04:38:43.117Z,6.51
2016-11-17T04:39:43.109Z,6.61
2016-11-17T04:40:43.413Z,6.57
2016-11-17T04:41:43.077Z,6.58
2016-11-17T04:42:43.070Z,6.6
2016-11-17T04:43:43.056Z,6.55
2016-11-17T04:44:43.049Z,6.55
2016-11-17T04:45:43.037Z,6.6
2016-11-17T04:46:43.065Z,6.57
2016-11-17T04:47:43.009Z,6.6
2016-11-17T04:48:43.008Z,6.58
2016-11-17T04:49:42.989Z,6.57
2016-11-17T04:50:42.972Z,6.6
2016-11-17T04:51:42.977Z,6.61
2016-11-17T04:52:42.981Z,6.58
2016-11-17T04:53:42.988Z,6.6
2016-11-17T04:54:43.023Z,6.62
2016-11-17T04:55:42.999Z,6.67
2016-11-17T04:56:42.946Z,6.7
2016-11-17T04:57:42.913Z,6.78
2016-11-17T04:58:42.919Z,6.75
2016-11-17T04:59:42.959Z,6.83
2016-11-17T05:00:42.963Z,6.75
2016-11-17T05:01:42.956Z,6.76
2016-11-17T05:02:42.886Z,6.79
2016-11-17T05:03:42.894Z,6.8
2016-11-17T05:04:42.910Z,6.78
2016-11-17T05:05:42.916Z,6.78
2016-11-17T05:06:42.932Z,6.82
2016-11-17T05:07:42.958Z,6.76
2016-11-17T05:08:42.931Z,6.85
2016-11-17T05:09:43.163Z,6.8
2016-11-17T05:10:42.900Z,6.85
2016-11-17T05:11:42.846Z,6.78
2016-11-17T05:12:42.863Z,6.76
2016-11-17T05:13:42.876Z,6.82
2016-11-17T05:14:42.877Z,6.78
2016-11-17T05:15:42.894Z,6.8
2016-11-17T05:16:42.828Z,6.7
2016-11-17T05:17:42.825Z,6.7
2016-11-17T05:18:42.839Z,6.68
2016-11-17T05:19:42.859Z,6.7
2016-11-17T05:20:42.846Z,6.64
2016-11-17T05:21:42.878Z,6.64
2016-11-17T05:22:42.755Z,6.64
2016-11-17T05:23:42.774Z,6.67
2016-11-17T05:24:42.866Z,6.65
2016-11-17T05:25:42.798Z,6.64
2016-11-17T05:26:42.804Z,6.64
2016-11-17T05:27:42.814Z,6.61
2016-11-17T05:28:42.819Z,6.61
2016-11-17T05:29:42.827Z,6.68
2016-11-17T05:30:42.796Z,6.68
2016-11-17T05:31:42.784Z,6.7
2016-11-17T05:32:42.647Z,6.67
2016-11-17T05:33:42.633Z,6.7
2016-11-17T05:34:42.826Z,6.7
2016-11-17T05:35:42.927Z,6.65
2016-11-17T05:36:42.619Z,6.73
2016-11-17T05:37:42.626Z,6.62
2016-11-17T05:38:42.631Z,6.6
2016-11-17T05:39:42.627Z,6.64
2016-11-17T05:40:42.607Z,6.55
2016-11-17T05:41:42.603Z,6.62
2016-11-17T05:42:42.477Z,6.61
2016-11-17T05:43:42.456Z,6.72
2016-11-17T05:44:42.451Z,6.75
2016-11-17T05:45:42.443Z,6.76
2016-11-17T05:46:42.435Z,6.7
2016-11-17T05:47:42.306Z,6.79
2016-11-17T05:48:42.300Z,6.78
2016-11-17T05:49:42.603Z,6.8
2016-11-17T05:50:42.285Z,6.75
2016-11-17T05:51:42.273Z,6.73
2016-11-17T05:52:42.258Z,6.82
2016-11-17T05:53:42.244Z,6.85
2016-11-17T05:54:42.231Z,6.91
2016-11-17T05:55:42.214Z,6.94
2016-11-17T05:56:42.209Z,6.9
2016-11-17T05:57:42.218Z,6.94
2016-11-17T05:58:42.187Z,6.98
2016-11-17T05:59:42.167Z,7.01
2016-11-17T06:00:42.497Z,6.97
2016-11-17T06:01:42.142Z,7.01
2016-11-17T06:02:42.134Z,6.97
2016-11-17T06:03:42.116Z,6.95
2016-11-17T06:04:42.105Z,6.85
2016-11-17T06:05:42.101Z,6.91
2016-11-17T06:06:42.090Z,6.9
2016-11-17T06:07:42.075Z,6.86
2016-11-17T06:08:42.058Z,6.88
2016-11-17T06:09:42.051Z,6.9
2016-11-17T06:10:42.034Z,6.86
2016-11-17T06:11:42.034Z,6.94
2016-11-17T06:12:42.011Z,6.86
2016-11-17T06:13:42.005Z,6.88
2016-11-17T06:14:41.989Z,6.93
2016-11-17T06:15:41.976Z,6.88
2016-11-17T06:16:41.966Z,6.85
2016-11-17T06:17:41.957Z,6.88
2016-11-17T06:18:41.945Z,6.95
2016-11-17T06:19:41.940Z,6.98
2016-11-17T06:20:41.920Z,6.88
2016-11-17T06:21:41.906Z,6.98
2016-11-17T06:22:41.891Z,7
2016-11-17T06:23:41.889Z,6.98
2016-11-17T06:24:41.876Z,7.01
2016-11-17T06:25:41.878Z,7.01
2016-11-17T06:26:41.843Z,7.01
2016-11-17T06:27:41.839Z,6.98
2016-11-17T06:28:41.827Z,6.97
2016-11-17T06:29:41.819Z,6.98
2016-11-17T06:30:41.801Z,7
2016-11-17T06:31:41.787Z,7
2016-11-17T06:32:41.775Z,6.97
2016-11-17T06:33:41.775Z,6.95
2016-11-17T06:34:41.759Z,6.97
2016-11-17T06:35:41.752Z,7.01
2016-11-17T06:36:41.733Z,7
2016-11-17T06:37:41.722Z,7
2016-11-17T06:38:41.720Z,6.88
2016-11-17T06:39:41.699Z,6.88
2016-11-17T06:40:41.690Z,6.93
2016-11-17T06:41:41.681Z,6.93
2016-11-17T06:42:41.698Z,6.9
2016-11-17T06:43:41.651Z,6.9
2016-11-17T06:44:41.646Z,6.9
2016-11-17T06:45:41.663Z,6.8
2016-11-17T06:46:41.641Z,6.88
2016-11-17T06:47:41.608Z,6.91
2016-11-17T06:48:41.590Z,6.93
2016-11-17T06:49:41.590Z,6.86
2016-11-17T06:50:41.567Z,6.86
2016-11-17T06:51:41.565Z,6.86
2016-11-17T06:52:41.554Z,6.86
2016-11-17T06:53:41.535Z,6.85
2016-11-17T06:54:41.525Z,6.91
2016-11-17T06:55:41.518Z,6.86
2016-11-17T06:56:41.498Z,6.95
2016-11-17T06:57:41.492Z,6.86
2016-11-17T06:58:41.484Z,6.83
2016-11-17T06:59:41.463Z,6.8
2016-11-17T07:00:41.470Z,6.85
2016-11-17T07:01:41.444Z,6.91
2016-11-17T07:02:41.432Z,6.9
2016-11-17T07:03:41.421Z,6.83
2016-11-17T07:04:41.406Z,7.03
2016-11-17T07:05:41.399Z,7
2016-11-17T07:06:41.389Z,7.03
2016-11-17T07:07:41.371Z,7.01
2016-11-17T07:08:41.414Z,7.04
2016-11-17T07:09:41.356Z,6.98
2016-11-17T07:10:41.329Z,7.04
2016-11-17T07:11:41.340Z,7.03
2016-11-17T07:12:41.321Z,7.01
2016-11-17T07:13:41.308Z,7.01
2016-11-17T07:14:41.291Z,7.08
2016-11-17T07:15:41.285Z,7.01
2016-11-17T07:16:41.265Z,7
2016-11-17T07:17:41.258Z,7.08
2016-11-17T07:18:41.246Z,7.08
2016-11-17T07:19:41.231Z,7.08
2016-11-17T07:20:41.259Z,7.05
2016-11-17T07:21:41.204Z,7.05
2016-11-17T07:22:41.201Z,7.15
2016-11-17T07:23:41.186Z,7.13
2016-11-17T07:24:41.183Z,7.12
2016-11-17T07:25:41.161Z,7.12
2016-11-17T07:26:41.196Z,7.22
2016-11-17T07:27:41.139Z,7.18
2016-11-17T07:28:41.133Z,7.21
2016-11-17T07:29:41.144Z,7.18
2016-11-17T07:30:41.102Z,7.21
2016-11-17T07:31:41.091Z,7.11
2016-11-17T07:32:41.081Z,7.23
2016-11-17T07:33:41.073Z,7.21
2016-11-17T07:34:41.059Z,7.29
2016-11-17T07:35:41.047Z,7.31
2016-11-17T07:36:41.034Z,7.37
2016-11-17T07:37:41.020Z,7.33
2016-11-17T07:38:41.007Z,7.33
2016-11-17T07:39:41.002Z,7.36
2016-11-17T07:40:40.996Z,7.4
2016-11-17T07:41:40.981Z,7.4
2016-11-17T07:42:40.963Z,7.54
2016-11-17T07:43:40.952Z,7.39
2016-11-17T07:44:40.950Z,7.45
2016-11-17T07:45:40.932Z,7.41
2016-11-17T07:46:40.918Z,7.39
2016-11-17T07:47:40.902Z,7.36
2016-11-17T07:48:40.903Z,7.45
2016-11-17T07:49:40.887Z,7.41
2016-11-17T07:50:40.872Z,7.51
2016-11-17T07:51:40.865Z,7.48
2016-11-17T07:52:40.853Z,7.54
2016-11-17T07:53:40.844Z,7.49
2016-11-17T07:54:40.824Z,7.52
2016-11-17T07:55:40.818Z,7.56
2016-11-17T07:56:40.815Z,7.47
2016-11-17T07:57:41.117Z,7.51
2016-11-17T07:58:40.787Z,7.47
2016-11-17T07:59:40.770Z,7.51
2016-11-17T08:00:40.761Z,7.49
2016-11-17T08:01:40.752Z,7.56
2016-11-17T08:02:40.743Z,7.49
2016-11-17T08:03:40.729Z,7.52
2016-11-17T08:04:40.721Z,7.56
2016-11-17T08:05:40.701Z,7.52
2016-11-17T08:06:40.736Z,7.54
2016-11-17T08:07:40.687Z,7.52
2016-11-17T08:08:40.667Z,7.52
2016-11-17T08:09:40.661Z,7.51
2016-11-17T08:10:40.650Z,7.54
2016-11-17T08:11:40.634Z,7.61
2016-11-17T08:12:40.629Z,7.58
2016-11-17T08:13:40.640Z,7.56
2016-11-17T08:14:40.638Z,7.67
2016-11-17T08:15:40.647Z,7.52
2016-11-17T08:16:40.648Z,7.58
2016-11-17T08:17:40.664Z,7.58
2016-11-17T08:18:40.978Z,7.61
2016-11-17T08:19:40.563Z,7.58
2016-11-17T08:20:40.576Z,7.67
2016-11-17T08:22:10.290Z,7.63
2016-11-17T08:22:40.917Z,7.73
2016-11-17T08:23:40.595Z,7.74
2016-11-17T08:24:40.545Z,7.73
2016-11-17T08:25:40.609Z,7.86
2016-11-17T08:26:40.580Z,7.8
2016-11-17T08:27:40.568Z,7.85
2016-11-17T08:28:40.579Z,7.75
2016-11-17T08:29:40.751Z,7.77
2016-11-17T08:30:40.594Z,7.8
2016-11-17T08:31:40.624Z,7.8
2016-11-17T08:32:40.501Z,7.83
2016-11-17T08:33:40.504Z,7.85
2016-11-17T08:34:40.515Z,7.88
2016-11-17T08:35:40.520Z,7.86
2016-11-17T08:36:40.529Z,7.88
2016-11-17T08:37:40.537Z,7.89
2016-11-17T08:38:40.539Z,7.93
2016-11-17T08:39:40.473Z,7.99
2016-11-17T08:40:40.484Z,7.96
2016-11-17T08:41:40.493Z,7.88
2016-11-17T08:42:40.569Z,7.98
2016-11-17T08:43:40.511Z,7.92
2016-11-17T08:44:40.477Z,7.93
2016-11-17T08:45:40.432Z,8.03
2016-11-17T08:46:40.440Z,8.04
2016-11-17T08:47:40.501Z,8.03
2016-11-17T08:48:40.438Z,7.93
2016-11-17T08:49:40.453Z,7.96
2016-11-17T08:50:40.458Z,8.01
2016-11-17T08:51:40.472Z,7.95
2016-11-17T08:52:40.462Z,7.92
2016-11-17T08:53:40.472Z,7.93
2016-11-17T08:54:40.334Z,7.93
2016-11-17T08:55:40.311Z,7.91
2016-11-17T08:56:40.298Z,7.92
2016-11-17T08:57:40.399Z,7.93
2016-11-17T08:58:40.411Z,7.96
2016-11-17T08:59:40.260Z,7.99
2016-11-17T09:00:40.272Z,7.95
2016-11-17T09:01:40.254Z,7.95
2016-11-17T09:02:40.337Z,7.98
2016-11-17T09:03:40.284Z,8.01
2016-11-17T09:04:40.276Z,7.96
2016-11-17T09:05:40.251Z,7.99
2016-11-17T09:06:40.256Z,8.03
2016-11-17T09:07:40.241Z,8.03
2016-11-17T09:08:40.109Z,8.01
2016-11-17T09:09:40.080Z,8.04
2016-11-17T09:10:40.081Z,8.09
2016-11-17T09:11:40.095Z,8.1
2016-11-17T09:12:40.083Z,8.16
2016-11-17T09:13:40.084Z,8.13
2016-11-17T09:14:39.945Z,8.21
2016-11-17T09:15:39.939Z,8.21
2016-11-17T09:16:39.928Z,8.19
2016-11-17T09:17:39.919Z,8.19
2016-11-17T09:18:39.901Z,8.16
2016-11-17T09:19:39.897Z,8.19
2016-11-17T09:20:39.921Z,8.17
2016-11-17T09:21:39.883Z,8.19
2016-11-17T09:22:39.866Z,8.29
2016-11-17T09:23:39.851Z,8.22
2016-11-17T09:24:39.840Z,8.26
2016-11-17T09:25:39.834Z,8.28
2016-11-17T09:26:39.814Z,8.25
2016-11-17T09:27:39.812Z,8.25
2016-11-17T09:28:39.803Z,8.24
2016-11-17T09:29:39.790Z,8.24
2016-11-17T09:30:39.775Z,8.28
2016-11-17T09:31:39.782Z,8.28
2016-11-17T09:32:39.757Z,8.29
2016-11-17T09:33:39.750Z,8.36
2016-11-17T09:34:39.733Z,8.26
2016-11-17T09:35:39.729Z,8.39
2016-11-17T09:36:39.711Z,8.36
2016-11-17T09:37:39.712Z,8.29
2016-11-17T09:38:39.695Z,8.39
2016-11-17T09:39:39.685Z,8.49
2016-11-17T09:40:39.671Z,8.52
2016-11-17T09:41:39.661Z,8.64
2016-11-17T09:42:39.647Z,8.61
2016-11-17T09:43:39.650Z,8.71
2016-11-17T09:44:39.629Z,8.67
2016-11-17T09:45:39.634Z,8.76
2016-11-17T09:46:39.607Z,8.83
2016-11-17T09:47:39.599Z,8.87
2016-11-17T09:48:39.596Z,8.82
2016-11-17T09:49:39.589Z,8.85
2016-11-17T09:50:39.570Z,8.86
2016-11-17T09:51:39.565Z,8.9
2016-11-17T09:52:39.552Z,8.86
2016-11-17T09:53:39.595Z,8.89
2016-11-17T09:54:39.531Z,8.89
2016-11-17T09:55:39.547Z,8.97
2016-11-17T09:56:39.512Z,9
2016-11-17T09:57:39.507Z,9.01
2016-11-17T09:58:39.491Z,8.98
2016-11-17T09:59:39.797Z,9
2016-11-17T10:00:39.469Z,9.04
2016-11-17T10:01:39.469Z,8.89
2016-11-17T10:02:39.453Z,8.95
2016-11-17T10:03:39.496Z,8.92
2016-11-17T10:04:39.431Z,8.9
2016-11-17T10:05:39.425Z,8.86
2016-11-17T10:06:39.411Z,8.83
2016-11-17T10:07:39.403Z,8.89
2016-11-17T10:08:39.389Z,8.97
2016-11-17T10:09:39.395Z,8.97
2016-11-17T10:10:39.369Z,9
2016-11-17T10:11:39.374Z,9.04
2016-11-17T10:12:39.355Z,9.14
2016-11-17T10:13:39.405Z,9.03
2016-11-17T10:14:39.331Z,9.16
2016-11-17T10:15:39.324Z,9.24
2016-11-17T10:16:39.344Z,9.29
2016-11-17T10:17:39.409Z,9.3
2016-11-17T10:18:39.319Z,9.32
2016-11-17T10:19:39.299Z,9.3
2016-11-17T10:20:39.292Z,9.29
2016-11-17T10:21:39.283Z,9.27
2016-11-17T10:22:39.254Z,9.29
2016-11-17T10:23:39.247Z,9.34
2016-11-17T10:24:39.238Z,9.39
2016-11-17T10:25:39.232Z,9.26
2016-11-17T10:26:39.222Z,9.2
2016-11-17T10:27:39.205Z,9.21
2016-11-17T10:28:39.273Z,9.14
2016-11-17T10:29:39.189Z,9.11
2016-11-17T10:30:39.185Z,9.08
2016-11-17T10:31:39.172Z,9.04
2016-11-17T10:32:39.179Z,9.01
2016-11-17T10:33:39.207Z,9.05
2016-11-17T10:34:39.162Z,8.98
2016-11-17T10:35:39.126Z,9.03
2016-11-17T10:36:39.134Z,8.97
2016-11-17T10:37:39.121Z,8.94
2016-11-17T10:38:39.286Z,8.89
2016-11-17T10:39:39.108Z,8.83
2016-11-17T10:40:39.096Z,8.85
2016-11-17T10:41:39.077Z,8.85
2016-11-17T10:42:39.076Z,8.77
2016-11-17T10:43:39.094Z,8.76
2016-11-17T10:44:39.052Z,8.72
2016-11-17T10:45:39.037Z,8.74
2016-11-17T10:46:39.039Z,8.74
2016-11-17T10:47:39.018Z,8.72
2016-11-17T10:48:39.008Z,8.72
2016-11-17T10:49:39.005Z,8.82
2016-11-17T10:50:38.988Z,8.85
2016-11-17T10:51:39.007Z,8.87
2016-11-17T10:52:38.982Z,8.86
2016-11-17T10:53:38.964Z,8.79
2016-11-17T10:54:38.950Z,8.89
2016-11-17T10:55:38.966Z,8.87
2016-11-17T10:56:38.937Z,8.77
2016-11-17T10:57:38.923Z,8.68
2016-11-17T10:58:38.911Z,8.74
2016-11-17T10:59:38.895Z,8.76
2016-11-17T11:00:38.895Z,8.74
2016-11-17T11:01:38.877Z,8.69
2016-11-17T11:02:38.868Z,8.69
2016-11-17T11:03:38.857Z,8.74
2016-11-17T11:04:39.176Z,8.69
2016-11-17T11:05:38.843Z,8.68
2016-11-17T11:06:38.830Z,8.72
2016-11-17T11:07:38.828Z,8.74
2016-11-17T11:08:38.811Z,8.69
2016-11-17T11:09:38.809Z,8.76
2016-11-17T11:10:38.792Z,8.85
2016-11-17T11:11:39.100Z,8.9
2016-11-17T11:12:38.772Z,8.95
2016-11-17T11:13:39.095Z,8.89
2016-11-17T11:14:38.752Z,8.95
2016-11-17T11:15:38.746Z,8.94
2016-11-17T11:16:38.739Z,9
2016-11-17T11:17:38.723Z,8.97
2016-11-17T11:18:38.714Z,9.04
2016-11-17T11:19:38.703Z,8.95
2016-11-17T11:20:38.692Z,9.01
2016-11-17T11:21:38.694Z,9.03
2016-11-17T11:22:38.673Z,8.98
2016-11-17T11:23:38.668Z,8.98
2016-11-17T11:24:38.678Z,9.03
2016-11-17T11:25:38.655Z,8.97
2016-11-17T11:26:38.635Z,8.94
2016-11-17T11:27:38.631Z,9.01
2016-11-17T11:28:38.614Z,8.97
2016-11-17T11:29:38.604Z,8.97
2016-11-17T11:30:38.597Z,8.9
2016-11-17T11:31:38.589Z,9
2016-11-17T11:32:38.576Z,9.05
2016-11-17T11:33:38.580Z,9.04
2016-11-17T11:34:38.567Z,9.01
2016-11-17T11:35:38.551Z,8.98
2016-11-17T11:36:38.567Z,8.97
2016-11-17T11:37:38.527Z,9.04
2016-11-17T11:38:38.524Z,9.08
2016-11-17T11:39:38.574Z,9.03
2016-11-17T11:40:38.528Z,9.05
2016-11-17T11:41:38.494Z,9.03
2016-11-17T11:42:38.474Z,9.04
2016-11-17T11:43:38.477Z,9.03
2016-11-17T11:44:38.467Z,9.09
2016-11-17T11:45:38.462Z,8.95
2016-11-17T11:46:38.445Z,9.03
2016-11-17T11:47:38.433Z,9.03
2016-11-17T11:48:38.419Z,9.03
2016-11-17T11:49:38.410Z,9.03
2016-11-17T11:50:38.400Z,9.03
2016-11-17T11:51:38.394Z,9.03
2016-11-17T11:52:38.394Z,9.05
2016-11-17T11:53:38.369Z,9.05
2016-11-17T11:54:38.366Z,9.01
2016-11-17T11:55:38.353Z,8.98
2016-11-17T11:56:38.353Z,9
2016-11-17T11:57:38.335Z,9.01
2016-11-17T11:58:38.338Z,9.08
2016-11-17T11:59:38.343Z,9.03
2016-11-17T12:00:38.309Z,9.11
2016-11-17T12:01:38.392Z,9.16
2016-11-17T12:02:38.297Z,9.21
2016-11-17T12:03:38.282Z,9.27
2016-11-17T12:04:38.278Z,9.17
2016-11-17T12:05:38.286Z,9.26
2016-11-17T12:06:38.247Z,9.17
2016-11-17T12:07:38.265Z,9.16
2016-11-17T12:08:38.235Z,9.29
2016-11-17T12:09:38.218Z,9.21
2016-11-17T12:10:38.225Z,9.19
2016-11-17T12:11:38.229Z,9.24
2016-11-17T12:12:38.233Z,9.21
2016-11-17T12:13:38.237Z,9.21
2016-11-17T12:14:38.246Z,9.14
2016-11-17T12:15:38.255Z,9.23
2016-11-17T12:16:38.211Z,9.11
2016-11-17T12:17:38.211Z,9.14
2016-11-17T12:18:38.213Z,9
2016-11-17T12:19:38.490Z,9.11
2016-11-17T12:20:38.197Z,9.04
2016-11-17T12:21:38.194Z,9.03
2016-11-17T12:22:38.197Z,9.08
2016-11-17T12:23:38.208Z,8.89
2016-11-17T12:24:38.155Z,8.9
2016-11-17T12:25:38.166Z,8.94
2016-11-17T12:26:38.135Z,8.83
2016-11-17T12:27:38.175Z,8.85
2016-11-17T12:28:38.191Z,8.8
2016-11-17T12:29:38.197Z,8.8
2016-11-17T12:30:38.201Z,8.79
2016-11-17T12:31:38.180Z,8.83
2016-11-17T12:32:38.110Z,8.77
2016-11-17T12:33:38.127Z,8.86
2016-11-17T12:34:38.132Z,8.89
2016-11-17T12:35:38.139Z,8.92
2016-11-17T12:36:38.138Z,8.85
2016-11-17T12:37:38.152Z,8.9
2016-11-17T12:38:38.013Z,8.95
2016-11-17T12:39:38.023Z,8.95
2016-11-17T12:40:38.033Z,8.89
2016-11-17T12:41:38.034Z,8.94
2016-11-17T12:42:38.042Z,8.95
2016-11-17T12:43:38.051Z,8.92
2016-11-17T12:44:37.959Z,8.8
2016-11-17T12:45:37.957Z,8.85
2016-11-17T12:46:37.967Z,8.76
2016-11-17T12:47:37.975Z,8.72
2016-11-17T12:48:37.983Z,8.74
2016-11-17T12:49:38.001Z,8.77
2016-11-17T12:50:38.399Z,8.71
2016-11-17T12:51:38.002Z,8.71
2016-11-17T12:52:38.010Z,8.72
2016-11-17T12:53:37.990Z,8.77
2016-11-17T12:54:37.853Z,8.72
2016-11-17T12:55:37.848Z,8.67
2016-11-17T12:56:37.835Z,8.61
2016-11-17T12:57:37.946Z,8.67
2016-11-17T12:58:37.956Z,8.62
2016-11-17T12:59:37.953Z,8.62
2016-11-17T13:00:37.793Z,8.61
2016-11-17T13:01:37.791Z,8.68
2016-11-17T13:02:37.784Z,8.62
2016-11-17T13:03:37.790Z,8.68
2016-11-17T13:04:37.779Z,8.69
2016-11-17T13:05:37.781Z,8.67
2016-11-17T13:06:37.768Z,8.69
2016-11-17T13:07:37.757Z,8.74
2016-11-17T13:08:37.746Z,8.76
2016-11-17T13:09:37.639Z,8.85
2016-11-17T13:10:37.746Z,8.85
2016-11-17T13:11:37.627Z,8.8
2016-11-17T13:12:37.616Z,8.86
2016-11-17T13:13:37.596Z,9
2016-11-17T13:14:37.585Z,8.89
2016-11-17T13:15:37.571Z,8.97
2016-11-17T13:16:37.569Z,9.01
2016-11-17T13:17:37.560Z,8.97
2016-11-17T13:18:37.555Z,8.97
2016-11-17T13:19:37.540Z,8.89
2016-11-17T13:20:37.528Z,9.04
2016-11-17T13:21:37.515Z,8.92
2016-11-17T13:22:37.515Z,9.01